Alder Creek, New York
Current Conditions -  °F | °C
As of 7:09 PM on Thursday 27 Nov 2014 (Local Time) from KRME Reporting Station
Light Snow Light Snow  
Wind Chill: 23°   Ceiling: 700
Heat Index: 28°   Visibility: 6mi
Dew Point: 27°   Wind: 5mph
Humidity: 96%   Direction: 270°W
Pressure: 30.06"   Gusts: NA
Location:  43.42°N, 75.23°W
Report Text: KRME 280009Z 27004KT 6SM -SN BR BKN007 BKN013 OVC065 M02/M03 A3006 RMK AO2 P0000 T10221028
Loading
Personal Weather Stations






























Interactive Weather Map New forecast layout! Learn more

10-Day Weather Forecast

Advertisements
Track Severe Weather on mobile